首页
METAR-TAF:

METAR-TAF

机场 :

古瓦哈提, 印度

纬度: 26-06-22N, 经度: 091-35-09E, 海拔: 49米

当前天气观测

该预报发布于43分钟前的19:00 UTC
风速5节,风向北转东北
温度 28°C
湿度 94%
气压 998 hPa
能見度: 2500
散云层高于1800英尺
少量云层高于2500英尺, 积雨云.
多云层高于9000英尺
轻雾,

METAR: VEGT 181900Z 02005KT 2500 BR SCT018 FEW025CB BKN090 28/27 Q0998 NOSIG

时间: 01:13 (19:43 UTC)

预报

该预报发布于2小时和43分钟前的17:00 UTC
预报有效从18日的 18点(UTC)到 19日的 03点(UTC)
风速节,风向
能見度: 2000
少量云层高于2000英尺
少量云层高于2500英尺, 积雨云.
多云层高于10000英尺
小雨, 轻雾,

TAF: VEGT 181700Z 1818/1903 00000KT 2000 -RA BR FEW020 FEW025CB BKN100

超过4000个机场的气象观测和天气预报(METAR&TAF报告)。

可查询的气象台以黄色和红色小点在地图上表示。

将鼠标移到小点上方,可查看气象台名称。

然后点击查看天气观测和预报。

如需切换地图:点击带黑十字的绿色按钮放大地图;点击带横线的绿色按钮缩小地图;或者点击绿色箭头查看邻近地区的地图。


METAR-TAF: